createdAt,value
2022-10-17T00:00:19.469Z,7.46
2022-10-17T00:01:23.507Z,7.43
2022-10-17T00:02:26.455Z,7.40
2022-10-17T00:03:30.538Z,7.38
2022-10-17T00:05:41.508Z,7.38
2022-10-17T00:06:45.005Z,7.37
2022-10-17T00:07:49.109Z,7.36
2022-10-17T00:08:53.167Z,7.36
2022-10-17T00:09:57.308Z,7.37
2022-10-17T00:11:01.657Z,7.35
2022-10-17T00:12:06.017Z,7.34
2022-10-17T00:13:10.556Z,7.31
2022-10-17T00:14:14.516Z,7.30
2022-10-17T00:15:18.676Z,7.30
2022-10-17T00:16:26.684Z,7.31
2022-10-17T00:17:31.215Z,7.31
2022-10-17T00:18:35.339Z,7.31
2022-10-17T00:19:38.568Z,7.31
2022-10-17T00:20:42.570Z,7.30
2022-10-17T00:21:45.466Z,7.29
2022-10-17T00:22:49.421Z,7.28
2022-10-17T00:23:52.835Z,7.28
2022-10-17T00:24:57.125Z,7.27
2022-10-17T00:26:02.009Z,7.26
2022-10-17T00:27:06.197Z,7.28
2022-10-17T00:28:11.185Z,7.28
2022-10-17T00:29:15.221Z,7.30
2022-10-17T00:30:18.356Z,7.30
2022-10-17T00:31:24.217Z,7.30
2022-10-17T00:32:27.383Z,7.29
2022-10-17T00:33:32.238Z,7.28
2022-10-17T00:34:35.328Z,7.29
2022-10-17T00:35:39.348Z,7.29
2022-10-17T00:36:42.276Z,7.29
2022-10-17T00:37:46.258Z,7.29
2022-10-17T00:38:51.029Z,7.27
2022-10-17T00:39:55.526Z,7.26
2022-10-17T00:40:58.997Z,7.26
2022-10-17T00:42:02.998Z,7.24
2022-10-17T00:43:07.266Z,7.24
2022-10-17T00:44:47.701Z,7.23
2022-10-17T00:45:53.145Z,7.18
2022-10-17T00:46:56.637Z,7.17
2022-10-17T00:48:02.630Z,7.17
2022-10-17T00:49:07.528Z,7.16
2022-10-17T00:50:11.829Z,7.14
2022-10-17T00:51:15.366Z,7.14
2022-10-17T00:52:22.991Z,7.15
2022-10-17T00:53:25.960Z,7.14
2022-10-17T00:54:33.638Z,7.15
2022-10-17T00:55:39.113Z,7.13
2022-10-17T00:56:44.068Z,7.13
2022-10-17T00:57:47.129Z,7.13
2022-10-17T00:58:51.249Z,7.13
2022-10-17T00:59:56.972Z,7.13
2022-10-17T01:01:03.516Z,7.12
2022-10-17T01:02:09.337Z,7.13
2022-10-17T01:03:13.328Z,7.15
2022-10-17T01:04:16.440Z,7.19
2022-10-17T01:05:21.190Z,7.22
2022-10-17T01:06:24.168Z,7.25
2022-10-17T01:07:33.118Z,7.28
2022-10-17T01:08:39.580Z,7.27
2022-10-17T01:09:45.049Z,7.26
2022-10-17T01:10:55.710Z,7.25
2022-10-17T01:12:06.279Z,7.25
2022-10-17T01:13:14.450Z,7.24
2022-10-17T01:14:24.675Z,7.22
2022-10-17T01:15:37.658Z,7.22
2022-10-17T01:16:49.146Z,7.22
2022-10-17T01:18:01.956Z,7.22
2022-10-17T01:20:59.915Z,7.20
2022-10-17T01:22:07.668Z,7.17
2022-10-17T01:23:23.640Z,7.14
2022-10-17T01:24:49.411Z,7.10
2022-10-17T01:25:56.783Z,7.08
2022-10-17T01:27:33.849Z,7.07
2022-10-17T01:29:03.047Z,7.05
2022-10-17T01:30:35.537Z,7.02
2022-10-17T01:31:44.357Z,6.98
2022-10-17T01:32:50.776Z,6.97
2022-10-17T01:34:01.205Z,6.96
2022-10-17T01:35:09.979Z,6.95
2022-10-17T01:36:19.167Z,6.94
2022-10-17T01:37:28.768Z,6.94
2022-10-17T01:38:36.283Z,6.94
2022-10-17T01:39:45.473Z,6.93
2022-10-17T01:40:55.479Z,6.95
2022-10-17T01:42:02.594Z,6.95
2022-10-17T01:43:10.467Z,6.94
2022-10-17T01:44:16.062Z,6.96
2022-10-17T01:45:24.318Z,6.96
2022-10-17T01:46:30.368Z,6.96
2022-10-17T01:47:36.387Z,6.96
2022-10-17T01:48:43.428Z,6.96
2022-10-17T01:49:48.360Z,6.96
2022-10-17T01:50:54.267Z,6.94
2022-10-17T01:52:01.818Z,6.92
2022-10-17T01:53:09.330Z,6.90
2022-10-17T01:54:18.286Z,6.90
2022-10-17T01:55:26.200Z,6.89
2022-10-17T01:56:34.496Z,6.87
2022-10-17T01:57:41.458Z,6.87
2022-10-17T01:58:49.056Z,6.86
2022-10-17T01:59:52.898Z,6.86
2022-10-17T02:01:01.595Z,6.83
2022-10-17T02:02:08.126Z,6.78
2022-10-17T02:03:15.956Z,6.75
2022-10-17T02:04:20.099Z,6.75
2022-10-17T02:05:26.608Z,6.73
2022-10-17T02:06:29.635Z,6.72
2022-10-17T02:07:34.567Z,6.71
2022-10-17T02:08:42.438Z,6.69
2022-10-17T02:09:46.607Z,6.68
2022-10-17T02:10:53.900Z,6.64
2022-10-17T02:12:11.531Z,6.63
2022-10-17T02:13:22.256Z,6.60
2022-10-17T02:14:33.698Z,6.60
2022-10-17T02:16:01.403Z,6.59
2022-10-17T02:17:10.868Z,6.59
2022-10-17T02:18:29.779Z,6.58
2022-10-17T02:19:45.518Z,6.59
2022-10-17T02:20:54.277Z,6.57
2022-10-17T02:22:05.718Z,6.57
2022-10-17T02:23:13.150Z,6.56
2022-10-17T02:24:21.573Z,6.53
2022-10-17T02:25:34.228Z,6.50
2022-10-17T02:26:42.130Z,6.49
2022-10-17T02:27:52.078Z,6.50
2022-10-17T02:29:03.210Z,6.49
2022-10-17T02:30:11.892Z,6.52
2022-10-17T02:31:17.390Z,6.56
2022-10-17T02:32:26.633Z,6.53
2022-10-17T02:33:34.456Z,6.49
2022-10-17T02:34:40.759Z,6.46
2022-10-17T02:35:47.807Z,6.45
2022-10-17T02:36:54.166Z,6.44
2022-10-17T02:37:58.959Z,6.44
2022-10-17T02:39:03.961Z,6.42
2022-10-17T02:40:08.017Z,6.40
2022-10-17T02:41:19.025Z,6.38
2022-10-17T02:42:23.737Z,6.36
2022-10-17T02:43:27.897Z,6.35
2022-10-17T02:44:31.445Z,6.33
2022-10-17T02:45:37.336Z,6.30
2022-10-17T02:46:42.217Z,6.29
2022-10-17T02:47:52.960Z,6.26
2022-10-17T02:49:01.606Z,6.24
2022-10-17T02:50:06.678Z,6.26
2022-10-17T02:51:12.877Z,6.24
2022-10-17T02:52:20.763Z,6.24
2022-10-17T02:53:30.277Z,6.24
2022-10-17T02:54:40.399Z,6.25
2022-10-17T02:55:48.900Z,6.24
2022-10-17T02:56:57.233Z,6.24
2022-10-17T02:58:03.394Z,6.23
2022-10-17T02:59:09.524Z,6.22
2022-10-17T03:00:14.532Z,6.24
2022-10-17T03:01:19.079Z,6.24
2022-10-17T03:02:22.678Z,6.23
2022-10-17T03:03:28.343Z,6.22
2022-10-17T03:04:37.379Z,6.21
2022-10-17T03:05:41.306Z,6.20
2022-10-17T03:06:46.198Z,6.19
2022-10-17T03:07:51.120Z,6.17
2022-10-17T03:08:54.096Z,6.15
2022-10-17T03:09:58.059Z,6.14
2022-10-17T03:11:01.264Z,6.13
2022-10-17T03:12:05.965Z,6.11
2022-10-17T03:13:10.397Z,6.09
2022-10-17T03:14:17.270Z,6.06
2022-10-17T03:15:20.262Z,6.05
2022-10-17T03:16:24.249Z,6.03
2022-10-17T03:17:28.294Z,6.02
2022-10-17T03:18:31.262Z,6.01
2022-10-17T03:19:39.218Z,6.01
2022-10-17T03:20:42.389Z,6.02
2022-10-17T03:21:46.348Z,6.04
2022-10-17T03:22:49.328Z,6.05
2022-10-17T03:23:53.416Z,6.05
2022-10-17T03:24:58.378Z,6.06
2022-10-17T03:26:05.508Z,6.07
2022-10-17T03:38:25.228Z,6.69
2022-10-17T03:39:29.700Z,6.61
2022-10-17T03:40:32.641Z,6.54
2022-10-17T03:41:36.800Z,6.47
2022-10-17T03:42:39.787Z,6.42
2022-10-17T03:43:43.861Z,6.39
2022-10-17T03:44:46.829Z,6.35
2022-10-17T03:45:50.781Z,6.32
2022-10-17T03:46:53.690Z,6.31
2022-10-17T03:47:57.746Z,6.32
2022-10-17T03:49:01.359Z,6.31
2022-10-17T03:50:06.510Z,6.29
2022-10-17T03:51:12.499Z,6.29
2022-10-17T03:52:21.850Z,6.25
2022-10-17T03:53:26.707Z,6.24
2022-10-17T03:54:31.360Z,6.21
2022-10-17T03:55:34.318Z,6.17
2022-10-17T03:56:38.819Z,6.11
2022-10-17T03:57:46.190Z,6.08
2022-10-17T03:58:51.955Z,6.06
2022-10-17T03:59:54.868Z,6.06
2022-10-17T04:00:59.209Z,6.02
2022-10-17T04:02:02.248Z,6.00
2022-10-17T04:03:06.230Z,5.98
2022-10-17T04:04:09.558Z,5.98
2022-10-17T04:05:14.407Z,5.96
2022-10-17T04:06:17.491Z,5.97
2022-10-17T04:07:21.551Z,5.96
2022-10-17T04:08:26.920Z,5.94
2022-10-17T04:09:42.438Z,5.90
2022-10-17T04:10:49.261Z,5.89
2022-10-17T04:11:53.328Z,5.88
2022-10-17T04:12:57.686Z,5.88
2022-10-17T04:14:01.790Z,5.88
2022-10-17T04:15:07.251Z,5.87
2022-10-17T04:16:16.718Z,5.85
2022-10-17T04:17:29.186Z,5.83
2022-10-17T04:18:32.328Z,5.81
2022-10-17T04:19:36.404Z,5.83
2022-10-17T04:20:39.275Z,5.81
2022-10-17T04:21:43.488Z,5.79
2022-10-17T04:22:46.500Z,5.77
2022-10-17T04:23:54.736Z,5.75
2022-10-17T04:25:10.307Z,5.72
2022-10-17T04:26:17.302Z,5.73
2022-10-17T04:27:20.301Z,5.73
2022-10-17T04:28:25.191Z,5.74
2022-10-17T04:29:28.633Z,5.77
2022-10-17T04:30:43.672Z,5.77
2022-10-17T04:31:50.028Z,5.77
2022-10-17T04:32:58.557Z,5.77
2022-10-17T04:34:03.488Z,5.77
2022-10-17T04:35:08.249Z,5.75
2022-10-17T04:36:13.081Z,5.77
2022-10-17T04:37:17.815Z,5.79
2022-10-17T04:38:27.607Z,5.79
2022-10-17T04:39:34.131Z,5.78
2022-10-17T04:40:37.303Z,5.75
2022-10-17T04:41:41.911Z,5.73
2022-10-17T04:42:45.407Z,5.71
2022-10-17T04:43:52.510Z,5.68
2022-10-17T04:44:56.867Z,5.64
2022-10-17T04:46:04.819Z,5.61
2022-10-17T04:47:10.168Z,5.57
2022-10-17T04:48:14.700Z,5.53
2022-10-17T04:49:19.648Z,5.51
2022-10-17T04:50:25.288Z,5.51
2022-10-17T04:51:49.210Z,5.49
2022-10-17T04:53:01.853Z,5.52
2022-10-17T04:54:06.017Z,5.53
2022-10-17T04:55:11.440Z,5.57
2022-10-17T04:56:17.333Z,5.59
2022-10-17T04:57:20.810Z,5.61
2022-10-17T04:58:42.042Z,5.62
2022-10-17T04:59:46.908Z,5.62
2022-10-17T05:00:57.183Z,5.63
2022-10-17T05:02:06.108Z,5.63
2022-10-17T05:03:10.380Z,5.63
2022-10-17T05:04:14.360Z,5.63
2022-10-17T05:05:17.309Z,5.62
2022-10-17T05:06:25.509Z,5.61
2022-10-17T05:07:46.368Z,5.57
2022-10-17T05:08:55.147Z,5.56
2022-10-17T05:09:58.977Z,5.55
2022-10-17T05:11:05.999Z,5.57
2022-10-17T05:12:10.402Z,5.54
2022-10-17T05:13:17.736Z,5.54
2022-10-17T05:14:20.899Z,5.53
2022-10-17T05:15:25.549Z,5.54
2022-10-17T05:16:32.240Z,5.56
2022-10-17T05:17:35.216Z,5.59
2022-10-17T05:18:39.380Z,5.61
2022-10-17T05:19:42.289Z,5.63
2022-10-17T05:20:46.470Z,5.65
2022-10-17T05:21:49.490Z,5.66
2022-10-17T05:22:53.470Z,5.68
2022-10-17T05:23:57.387Z,5.70
2022-10-17T05:25:01.643Z,5.71
2022-10-17T05:26:06.333Z,5.72
2022-10-17T05:27:10.320Z,5.72
2022-10-17T05:28:13.407Z,5.74
2022-10-17T05:29:19.572Z,5.77
2022-10-17T05:30:27.789Z,5.78
2022-10-17T05:31:45.117Z,5.82
2022-10-17T05:32:48.798Z,5.85
2022-10-17T05:33:52.770Z,5.89
2022-10-17T05:34:55.807Z,5.95
2022-10-17T05:36:02.076Z,6.01
2022-10-17T05:37:04.997Z,6.11
2022-10-17T05:38:09.876Z,6.21
2022-10-17T05:39:15.090Z,6.33
2022-10-17T05:40:19.590Z,6.47
2022-10-17T05:41:24.054Z,6.64
2022-10-17T05:42:28.641Z,6.81
2022-10-17T05:43:34.877Z,6.95
2022-10-17T05:44:39.507Z,7.12
2022-10-17T05:45:44.654Z,7.27
2022-10-17T05:46:53.797Z,7.40
2022-10-17T05:47:58.940Z,7.53
2022-10-17T05:49:05.299Z,7.66
2022-10-17T05:50:11.850Z,7.75
2022-10-17T05:51:36.113Z,7.86
2022-10-17T05:52:42.931Z,7.96
2022-10-17T05:53:52.608Z,8.12
2022-10-17T05:55:00.161Z,8.30
2022-10-17T05:56:06.702Z,8.47
2022-10-17T05:57:11.200Z,8.65
2022-10-17T05:58:21.969Z,8.79
2022-10-17T05:59:29.062Z,8.95
2022-10-17T06:00:38.951Z,9.06
2022-10-17T06:01:42.026Z,9.17
2022-10-17T06:02:47.224Z,9.31
2022-10-17T06:03:51.759Z,9.46
2022-10-17T06:04:55.806Z,9.57
2022-10-17T06:06:05.339Z,9.72
2022-10-17T06:07:08.282Z,9.81
2022-10-17T06:08:12.421Z,9.88
2022-10-17T06:09:19.016Z,10.03
2022-10-17T06:10:26.320Z,10.16
2022-10-17T06:11:30.218Z,10.31
2022-10-17T06:12:35.700Z,10.43
2022-10-17T06:13:38.848Z,10.55
2022-10-17T06:14:49.007Z,10.64
2022-10-17T06:15:52.103Z,10.75
2022-10-17T06:16:56.104Z,10.84
2022-10-17T06:17:58.955Z,10.91
2022-10-17T06:19:03.117Z,11.00
2022-10-17T06:20:07.267Z,11.09
2022-10-17T06:21:13.270Z,11.19
2022-10-17T06:22:20.641Z,11.28
2022-10-17T06:23:24.687Z,11.36
2022-10-17T06:24:40.941Z,11.43
2022-10-17T06:25:44.138Z,11.52
2022-10-17T06:26:50.066Z,11.64
2022-10-17T06:27:57.208Z,11.76
2022-10-17T06:29:00.250Z,11.85
2022-10-17T06:30:09.879Z,11.95
2022-10-17T06:31:14.684Z,12.03
2022-10-17T06:32:18.807Z,12.08
2022-10-17T06:33:23.643Z,12.17
2022-10-17T06:34:27.820Z,12.28
2022-10-17T06:35:30.810Z,12.38
2022-10-17T06:36:35.059Z,12.50
2022-10-17T06:37:38.215Z,12.60
2022-10-17T06:38:45.641Z,12.72
2022-10-17T06:39:57.521Z,12.84
2022-10-17T06:41:08.708Z,13.00
2022-10-17T06:42:11.719Z,13.12
2022-10-17T06:43:36.018Z,13.24
2022-10-17T06:44:59.931Z,13.40
2022-10-17T06:46:19.491Z,13.51
2022-10-17T06:47:51.859Z,13.64
2022-10-17T06:49:25.323Z,13.75
2022-10-17T06:50:35.690Z,13.84
2022-10-17T06:51:48.058Z,13.91
2022-10-17T06:52:55.205Z,13.98
2022-10-17T06:54:22.460Z,14.01
2022-10-17T06:55:45.539Z,14.05
2022-10-17T06:56:58.552Z,14.09
2022-10-17T06:58:17.429Z,14.18
2022-10-17T06:59:35.059Z,14.30
2022-10-17T07:00:46.181Z,14.43
2022-10-17T07:01:50.338Z,14.52
2022-10-17T07:02:53.531Z,14.63
2022-10-17T07:03:58.208Z,14.76
2022-10-17T07:05:01.289Z,14.88
2022-10-17T07:06:06.040Z,14.96
2022-10-17T07:07:20.123Z,15.02
2022-10-17T07:08:23.198Z,15.06
2022-10-17T07:09:27.968Z,15.08
2022-10-17T07:10:38.441Z,15.09
2022-10-17T07:11:44.318Z,15.10
2022-10-17T07:12:47.310Z,15.11
2022-10-17T07:13:51.258Z,15.10
2022-10-17T07:14:56.669Z,15.07
2022-10-17T07:16:01.962Z,15.04
2022-10-17T07:17:08.389Z,15.00
2022-10-17T07:18:11.585Z,14.97
2022-10-17T07:19:16.291Z,14.94
2022-10-17T07:20:19.217Z,14.88
2022-10-17T07:21:23.327Z,14.86
2022-10-17T07:22:26.407Z,14.82
2022-10-17T07:23:36.767Z,14.78
2022-10-17T07:24:40.906Z,14.75
2022-10-17T07:25:51.972Z,14.72
2022-10-17T07:26:56.320Z,14.70
2022-10-17T07:27:59.397Z,14.71
2022-10-17T07:29:03.577Z,14.71
2022-10-17T07:30:22.262Z,14.71
2022-10-17T07:31:52.367Z,14.68
2022-10-17T07:32:55.567Z,14.67
2022-10-17T07:34:01.241Z,14.67
2022-10-17T07:35:06.270Z,14.68
2022-10-17T07:36:09.586Z,14.70
2022-10-17T07:37:14.049Z,14.71
2022-10-17T07:38:24.002Z,14.70
2022-10-17T07:39:27.027Z,14.69
2022-10-17T07:40:31.171Z,14.70
2022-10-17T07:41:34.138Z,14.69
2022-10-17T07:43:43.590Z,14.72
2022-10-17T07:44:48.139Z,14.76
2022-10-17T07:45:54.132Z,14.79
2022-10-17T07:46:59.296Z,14.85
2022-10-17T07:48:02.550Z,14.91
2022-10-17T07:49:07.793Z,14.94
2022-10-17T07:50:11.149Z,14.98
2022-10-17T07:51:15.404Z,15.03
2022-10-17T07:52:19.470Z,15.08
2022-10-17T07:53:22.642Z,15.13
2022-10-17T07:54:26.943Z,15.19
2022-10-17T07:55:30.320Z,15.23
2022-10-17T07:56:36.237Z,15.29
2022-10-17T07:57:40.489Z,15.33
2022-10-17T07:58:44.692Z,15.37
2022-10-17T07:59:48.297Z,15.41
2022-10-17T08:00:53.802Z,15.44
2022-10-17T08:01:58.059Z,15.48
2022-10-17T08:03:00.969Z,15.51
2022-10-17T08:04:04.896Z,15.55
2022-10-17T08:05:08.792Z,15.58
2022-10-17T08:06:22.368Z,15.64
2022-10-17T08:07:33.647Z,15.72
2022-10-17T08:08:37.397Z,15.76
2022-10-17T08:09:41.348Z,15.79
2022-10-17T08:10:44.338Z,15.82
2022-10-17T08:11:49.269Z,15.85
2022-10-17T08:12:52.141Z,15.88
2022-10-17T08:13:56.195Z,15.91
2022-10-17T08:14:59.080Z,15.93
2022-10-17T08:16:05.759Z,15.95
2022-10-17T08:17:08.782Z,15.97
2022-10-17T08:18:13.994Z,16.00
2022-10-17T08:19:16.869Z,16.03
2022-10-17T08:20:20.940Z,16.07
2022-10-17T08:21:24.916Z,16.13
2022-10-17T08:22:29.149Z,16.18
2022-10-17T08:23:33.384Z,16.23
2022-10-17T08:24:37.421Z,16.28
2022-10-17T08:25:40.416Z,16.34
2022-10-17T08:26:46.181Z,16.38
2022-10-17T08:27:51.509Z,16.44
2022-10-17T08:28:55.660Z,16.48
2022-10-17T08:29:58.690Z,16.53
2022-10-17T08:31:09.139Z,16.57
2022-10-17T08:32:13.107Z,16.60
2022-10-17T08:33:16.140Z,16.64
2022-10-17T08:34:20.447Z,16.67
2022-10-17T08:35:24.051Z,16.70
2022-10-17T08:36:29.367Z,16.73
2022-10-17T08:37:32.829Z,16.78
2022-10-17T08:38:41.432Z,16.82
2022-10-17T08:39:46.279Z,16.87
2022-10-17T08:40:50.843Z,16.90
2022-10-17T08:42:05.338Z,16.96
2022-10-17T08:43:18.920Z,17.01
2022-10-17T08:44:35.242Z,17.06
2022-10-17T08:45:42.190Z,17.10
2022-10-17T08:46:49.828Z,17.15
2022-10-17T08:47:55.440Z,17.18
2022-10-17T08:49:02.200Z,17.23
2022-10-17T08:50:08.685Z,17.27
2022-10-17T08:51:16.759Z,17.32
2022-10-17T08:52:28.133Z,17.38
2022-10-17T08:53:36.479Z,17.46
2022-10-17T08:54:43.328Z,17.51
2022-10-17T08:55:49.067Z,17.56
2022-10-17T08:56:55.157Z,17.63
2022-10-17T08:57:59.404Z,17.70
2022-10-17T08:59:04.336Z,17.77
2022-10-17T09:00:15.870Z,17.85
2022-10-17T09:01:34.970Z,17.91
2022-10-17T09:02:51.866Z,17.97
2022-10-17T09:04:11.623Z,18.04
2022-10-17T09:05:43.043Z,18.16
2022-10-17T09:06:51.407Z,18.25
2022-10-17T09:08:01.402Z,18.31
2022-10-17T09:09:16.914Z,18.43
2022-10-17T09:10:27.396Z,18.54
2022-10-17T09:11:42.111Z,18.66
2022-10-17T09:12:50.987Z,18.79
2022-10-17T09:14:03.790Z,18.92
2022-10-17T09:15:31.185Z,19.06
2022-10-17T09:16:46.350Z,19.16
2022-10-17T09:17:53.523Z,19.26
2022-10-17T09:19:01.857Z,19.32
2022-10-17T09:20:11.537Z,19.36
2022-10-17T09:21:20.441Z,19.41
2022-10-17T09:22:26.660Z,19.44
2022-10-17T09:23:33.425Z,19.44
2022-10-17T09:24:41.128Z,19.47
2022-10-17T09:25:47.278Z,19.49
2022-10-17T09:26:52.722Z,19.49
2022-10-17T09:28:03.741Z,19.52
2022-10-17T09:29:16.346Z,19.52
2022-10-17T09:30:46.382Z,19.55
2022-10-17T09:31:54.288Z,19.58
2022-10-17T09:32:59.952Z,19.61
2022-10-17T09:34:04.751Z,19.64
2022-10-17T09:35:12.867Z,19.68
2022-10-17T09:36:19.045Z,19.69
2022-10-17T09:37:31.590Z,19.71
2022-10-17T09:38:40.905Z,19.74
2022-10-17T09:39:45.559Z,19.76
2022-10-17T09:40:56.890Z,19.80
2022-10-17T09:42:02.303Z,19.83
2022-10-17T09:43:08.149Z,19.87
2022-10-17T09:44:20.900Z,19.90
2022-10-17T09:45:26.246Z,19.93
2022-10-17T09:46:35.870Z,19.96
2022-10-17T09:47:42.670Z,19.98
2022-10-17T09:48:52.568Z,20.00
2022-10-17T09:49:57.795Z,20.03
2022-10-17T09:51:15.145Z,20.10
2022-10-17T09:52:30.567Z,20.18
2022-10-17T09:53:38.408Z,20.24
2022-10-17T09:54:44.977Z,20.30
2022-10-17T09:55:51.165Z,20.36
2022-10-17T09:57:02.995Z,20.43
2022-10-17T09:58:08.547Z,20.46
2022-10-17T09:59:33.820Z,20.51
2022-10-17T10:00:39.761Z,20.54
2022-10-17T10:01:42.778Z,20.60
2022-10-17T10:02:46.731Z,20.64
2022-10-17T10:04:10.778Z,20.69
2022-10-17T10:05:16.717Z,20.71
2022-10-17T10:06:22.015Z,20.74
2022-10-17T10:07:29.114Z,20.76
2022-10-17T10:08:35.749Z,20.78
2022-10-17T10:09:40.254Z,20.77
2022-10-17T10:10:44.900Z,20.79
2022-10-17T10:11:50.235Z,20.81
2022-10-17T10:13:06.301Z,20.83
2022-10-17T10:14:14.211Z,20.85
2022-10-17T10:15:34.012Z,20.88
2022-10-17T10:16:43.488Z,20.89
2022-10-17T10:17:47.449Z,20.92
2022-10-17T10:18:52.213Z,20.93
2022-10-17T10:19:56.206Z,20.97
2022-10-17T10:21:06.299Z,21.01
2022-10-17T10:22:18.290Z,21.05
2022-10-17T10:23:22.428Z,21.06
2022-10-17T10:24:30.836Z,21.07
2022-10-17T10:25:35.592Z,21.12
2022-10-17T10:26:42.036Z,21.14
2022-10-17T10:27:45.781Z,21.19
2022-10-17T10:28:57.933Z,21.21
2022-10-17T10:30:02.098Z,21.21
2022-10-17T10:31:07.208Z,21.22
2022-10-17T10:32:20.361Z,21.23
2022-10-17T10:33:26.046Z,21.24
2022-10-17T10:34:32.928Z,21.25
2022-10-17T10:35:36.944Z,21.27
2022-10-17T10:36:49.853Z,21.29
2022-10-17T10:37:55.934Z,21.32
2022-10-17T10:39:02.449Z,21.33
2022-10-17T10:40:18.281Z,21.36
2022-10-17T10:41:21.832Z,21.39
2022-10-17T10:42:28.161Z,21.42
2022-10-17T10:43:35.298Z,21.47
2022-10-17T10:44:42.290Z,21.50
2022-10-17T10:45:49.136Z,21.54
2022-10-17T10:47:11.337Z,21.54
2022-10-17T10:48:22.082Z,21.56
2022-10-17T10:49:31.719Z,21.60
2022-10-17T10:50:44.385Z,21.63
2022-10-17T10:51:48.700Z,21.67
2022-10-17T10:52:58.176Z,21.72
2022-10-17T10:54:06.812Z,21.78
2022-10-17T10:55:21.644Z,21.85
2022-10-17T10:56:29.921Z,21.89
2022-10-17T10:57:35.979Z,21.91
2022-10-17T10:58:47.800Z,21.94
2022-10-17T10:59:58.559Z,21.97
2022-10-17T11:01:06.588Z,22.03
2022-10-17T11:02:14.680Z,22.05
2022-10-17T11:03:23.248Z,22.08
2022-10-17T11:04:31.068Z,22.10
2022-10-17T11:05:42.741Z,22.13
2022-10-17T11:06:47.137Z,22.15
2022-10-17T11:07:56.250Z,22.18
2022-10-17T11:09:11.136Z,22.21
2022-10-17T11:10:17.608Z,22.22
2022-10-17T11:11:27.387Z,22.26
2022-10-17T11:12:35.028Z,22.26
2022-10-17T11:13:42.649Z,22.27
2022-10-17T11:14:49.021Z,22.27
2022-10-17T11:15:55.164Z,22.30
2022-10-17T11:17:07.550Z,22.38
2022-10-17T11:18:15.163Z,22.43
2022-10-17T11:19:26.335Z,22.47
2022-10-17T11:20:36.158Z,22.50
2022-10-17T11:21:45.888Z,22.52
2022-10-17T11:22:51.106Z,22.56
2022-10-17T11:24:00.179Z,22.59
2022-10-17T11:25:06.520Z,22.62
2022-10-17T11:26:14.816Z,22.64
2022-10-17T11:27:17.863Z,22.68
2022-10-17T11:28:23.173Z,22.73
2022-10-17T11:29:31.250Z,22.78
2022-10-17T11:31:54.322Z,22.80
2022-10-17T11:33:01.655Z,22.85
2022-10-17T11:34:07.598Z,22.88
2022-10-17T11:35:26.155Z,22.91
2022-10-17T11:36:32.117Z,22.95
2022-10-17T11:37:41.039Z,23.00
2022-10-17T11:38:49.729Z,23.06
2022-10-17T11:39:56.702Z,23.10
2022-10-17T11:41:00.507Z,23.13
2022-10-17T11:42:08.407Z,23.20
2022-10-17T11:43:15.398Z,23.26
2022-10-17T11:44:23.349Z,23.36
2022-10-17T11:45:29.456Z,23.44
2022-10-17T11:46:37.059Z,23.49
2022-10-17T11:47:45.382Z,23.48
2022-10-17T11:48:59.697Z,23.46
2022-10-17T11:53:07.938Z,23.37
2022-10-17T11:54:15.509Z,23.34
2022-10-17T11:55:22.948Z,23.33
2022-10-17T11:56:36.165Z,23.30
2022-10-17T11:58:00.258Z,23.26
2022-10-17T11:59:18.495Z,23.26
2022-10-17T12:00:28.721Z,23.24
2022-10-17T12:01:39.097Z,23.24
2022-10-17T12:02:48.130Z,23.25
2022-10-17T12:04:06.817Z,23.30
2022-10-17T12:05:20.199Z,23.34
2022-10-17T12:06:39.120Z,23.40
2022-10-17T12:07:48.623Z,23.44
2022-10-17T12:08:58.446Z,23.48
2022-10-17T12:10:09.001Z,23.51
2022-10-17T12:11:16.346Z,23.55
2022-10-17T12:12:28.610Z,23.61
2022-10-17T12:13:55.364Z,23.67
2022-10-17T12:15:29.560Z,23.71
2022-10-17T12:16:43.613Z,23.74
2022-10-17T12:17:48.070Z,23.78
2022-10-17T12:19:12.737Z,23.85
2022-10-17T12:20:29.132Z,23.87
2022-10-17T12:21:55.654Z,23.92
2022-10-17T12:23:04.754Z,23.94
2022-10-17T12:24:28.897Z,23.99
2022-10-17T12:25:34.423Z,24.04
2022-10-17T12:26:37.359Z,24.05
2022-10-17T12:27:43.958Z,24.07
2022-10-17T12:28:48.562Z,24.07
2022-10-17T12:29:59.647Z,24.10
2022-10-17T12:31:07.358Z,24.13
2022-10-17T12:32:13.325Z,24.14
2022-10-17T12:33:22.647Z,24.12
2022-10-17T12:34:25.669Z,24.11
2022-10-17T12:35:30.770Z,24.13
2022-10-17T12:36:38.468Z,24.22
2022-10-17T12:38:04.618Z,24.36
2022-10-17T12:39:41.570Z,24.54
2022-10-17T12:41:11.547Z,24.84
2022-10-17T12:42:30.539Z,25.10
2022-10-17T12:44:55.396Z,25.60
2022-10-17T12:45:59.095Z,25.85
2022-10-17T12:47:31.029Z,26.18
2022-10-17T12:49:03.016Z,26.44
2022-10-17T12:50:52.960Z,26.61
2022-10-17T12:52:24.085Z,26.75
2022-10-17T12:53:35.851Z,26.78
2022-10-17T12:54:47.653Z,26.77
2022-10-17T12:56:03.948Z,26.77
2022-10-17T12:57:14.685Z,26.79
2022-10-17T12:58:18.687Z,26.84
2022-10-17T12:59:25.497Z,26.92
2022-10-17T13:00:35.303Z,26.98
2022-10-17T13:01:39.639Z,27.05
2022-10-17T13:02:43.941Z,27.14
2022-10-17T13:03:48.519Z,27.22
2022-10-17T13:04:55.109Z,27.27
2022-10-17T13:06:02.084Z,27.30
2022-10-17T13:07:05.053Z,27.26
2022-10-17T13:08:10.599Z,27.26
2022-10-17T13:09:22.377Z,27.35
2022-10-17T13:10:28.419Z,27.47
2022-10-17T13:11:34.099Z,27.62
2022-10-17T13:12:41.300Z,27.76
2022-10-17T13:13:47.954Z,27.91
2022-10-17T13:14:52.058Z,28.04
2022-10-17T13:15:56.627Z,28.08
2022-10-17T13:17:00.518Z,28.10
2022-10-17T13:18:04.476Z,28.08
2022-10-17T13:19:14.788Z,28.00
2022-10-17T13:20:27.523Z,27.93
2022-10-17T13:21:34.467Z,27.83
2022-10-17T13:22:45.419Z,27.83
2022-10-17T13:23:53.219Z,27.84
2022-10-17T13:25:08.738Z,27.80
2022-10-17T13:26:20.298Z,27.72
2022-10-17T13:27:26.871Z,27.64
2022-10-17T13:28:33.894Z,27.62
2022-10-17T13:29:45.846Z,27.68
2022-10-17T13:30:49.986Z,27.71
2022-10-17T13:31:54.793Z,27.72
2022-10-17T13:32:59.030Z,27.74
2022-10-17T13:34:05.011Z,27.67
2022-10-17T13:35:10.562Z,27.63
2022-10-17T13:36:19.027Z,27.60
2022-10-17T13:37:23.094Z,27.58
2022-10-17T13:38:30.472Z,27.62
2022-10-17T13:39:55.305Z,27.58
2022-10-17T13:41:22.965Z,27.38
2022-10-17T13:42:27.838Z,27.15
2022-10-17T13:43:34.290Z,26.97
2022-10-17T13:44:40.462Z,26.83
2022-10-17T13:45:50.227Z,26.69
2022-10-17T13:46:53.843Z,26.52
2022-10-17T13:47:58.410Z,26.40
2022-10-17T13:49:10.909Z,26.25
2022-10-17T13:50:42.953Z,26.09
2022-10-17T13:51:50.408Z,25.87
2022-10-17T13:53:17.561Z,25.72
2022-10-17T13:54:35.115Z,25.63
2022-10-17T13:55:38.069Z,25.63
2022-10-17T13:56:42.090Z,25.62
2022-10-17T13:57:45.018Z,25.63
2022-10-17T13:58:51.716Z,25.59
2022-10-17T13:59:57.647Z,25.53
2022-10-17T14:01:01.812Z,25.42
2022-10-17T14:02:06.098Z,25.31
2022-10-17T14:03:10.007Z,25.21
2022-10-17T14:04:19.803Z,25.12
2022-10-17T14:05:24.441Z,25.02
2022-10-17T14:06:28.793Z,24.92
2022-10-17T14:07:52.032Z,24.87
2022-10-17T14:09:02.557Z,24.78
2022-10-17T14:10:07.326Z,24.74
2022-10-17T14:11:24.138Z,24.74
2022-10-17T14:12:27.267Z,24.84
2022-10-17T14:13:34.263Z,24.97
2022-10-17T14:15:05.252Z,25.07
2022-10-17T14:16:05.907Z,25.12
2022-10-17T14:17:14.320Z,25.07
2022-10-17T14:18:20.751Z,24.99
2022-10-17T14:19:27.380Z,24.88
2022-10-17T14:21:55.443Z,24.64
2022-10-17T14:23:21.496Z,24.69
2022-10-17T14:24:30.147Z,24.80
2022-10-17T14:25:35.777Z,24.93
2022-10-17T14:26:48.660Z,25.10
2022-10-17T14:28:02.770Z,25.21
2022-10-17T14:29:08.946Z,25.39
2022-10-17T14:30:55.632Z,25.57
2022-10-17T14:32:03.411Z,25.79
2022-10-17T14:33:08.951Z,25.91
2022-10-17T14:34:22.479Z,26.03
2022-10-17T14:35:41.999Z,26.13
2022-10-17T14:36:54.559Z,26.14
2022-10-17T14:38:00.704Z,26.13
2022-10-17T14:39:05.531Z,26.11
2022-10-17T14:40:16.060Z,26.01
2022-10-17T14:41:41.762Z,25.80
2022-10-17T14:42:46.950Z,25.51
2022-10-17T14:43:56.949Z,25.26
2022-10-17T14:45:06.971Z,25.03
2022-10-17T14:46:15.222Z,24.81
2022-10-17T14:47:42.727Z,24.66
2022-10-17T14:48:44.300Z,24.42
2022-10-17T14:49:51.309Z,24.31
2022-10-17T14:51:08.220Z,24.30
2022-10-17T14:52:27.548Z,24.27
2022-10-17T14:53:31.589Z,24.23
2022-10-17T14:54:36.126Z,24.31
2022-10-17T14:55:41.585Z,24.35
2022-10-17T14:56:50.452Z,24.33
2022-10-17T14:57:54.403Z,24.27
2022-10-17T14:58:57.428Z,24.20
2022-10-17T15:00:01.525Z,24.16
2022-10-17T15:01:04.610Z,24.19
2022-10-17T15:02:10.549Z,24.23
2022-10-17T15:03:14.609Z,24.24
2022-10-17T15:04:18.558Z,24.27
2022-10-17T15:05:23.414Z,24.24
2022-10-17T15:06:29.039Z,24.16
2022-10-17T15:07:33.070Z,24.10
2022-10-17T15:08:36.014Z,24.02
2022-10-17T15:09:40.130Z,23.90
2022-10-17T15:10:44.489Z,23.77